sensor_id;sensor_type;location;lat;lon;timestamp;P1;durP1;ratioP1;P2;durP2;ratioP2
4428;SDS011;2227;47.810;8.810;2023-09-19T03:48:41;3.20;;;1.20;;
4428;SDS011;2227;47.810;8.810;2023-09-19T03:51:09;3.45;;;1.75;;
4428;SDS011;2227;47.810;8.810;2023-09-19T03:53:37;2.72;;;1.20;;
4428;SDS011;2227;47.810;8.810;2023-09-19T03:56:04;2.75;;;1.10;;
4428;SDS011;2227;47.810;8.810;2023-09-19T03:58:32;3.40;;;1.25;;
4428;SDS011;2227;47.810;8.810;2023-09-19T04:01:01;3.17;;;1.40;;
4428;SDS011;2227;47.810;8.810;2023-09-19T04:03:28;1.98;;;1.10;;
4428;SDS011;2227;47.810;8.810;2023-09-19T04:06:01;2.22;;;0.90;;
4428;SDS011;2227;47.810;8.810;2023-09-19T04:08:28;1.00;;;0.70;;
4428;SDS011;2227;47.810;8.810;2023-09-19T04:10:55;2.53;;;1.00;;
4428;SDS011;2227;47.810;8.810;2023-09-19T04:13:23;2.97;;;1.48;;
4428;SDS011;2227;47.810;8.810;2023-09-19T04:15:50;2.85;;;1.30;;
4428;SDS011;2227;47.810;8.810;2023-09-19T04:18:17;2.30;;;0.90;;
4428;SDS011;2227;47.810;8.810;2023-09-19T04:20:47;1.75;;;0.75;;
4428;SDS011;2227;47.810;8.810;2023-09-19T04:23:16;3.42;;;0.82;;
4428;SDS011;2227;47.810;8.810;2023-09-19T04:25:43;2.08;;;0.80;;
4428;SDS011;2227;47.810;8.810;2023-09-19T04:28:10;3.08;;;0.80;;
4428;SDS011;2227;47.810;8.810;2023-09-19T04:30:37;2.38;;;0.90;;
4428;SDS011;2227;47.810;8.810;2023-09-19T04:33:06;2.83;;;0.77;;
4428;SDS011;2227;47.810;8.810;2023-09-19T04:35:34;2.75;;;1.13;;
4428;SDS011;2227;47.810;8.810;2023-09-19T04:38:01;2.85;;;0.80;;
4428;SDS011;2227;47.810;8.810;2023-09-19T04:40:29;2.80;;;0.98;;
4428;SDS011;2227;47.810;8.810;2023-09-19T04:42:56;2.53;;;0.98;;
4428;SDS011;2227;47.810;8.810;2023-09-19T04:45:23;2.72;;;1.17;;
4428;SDS011;2227;47.810;8.810;2023-09-19T04:47:50;2.67;;;1.00;;
4428;SDS011;2227;47.810;8.810;2023-09-19T04:50:17;4.53;;;1.00;;
4428;SDS011;2227;47.810;8.810;2023-09-19T04:52:44;2.53;;;1.10;;
4428;SDS011;2227;47.810;8.810;2023-09-19T04:55:12;2.10;;;1.10;;
4428;SDS011;2227;47.810;8.810;2023-09-19T04:57:43;5.00;;;1.40;;
4428;SDS011;2227;47.810;8.810;2023-09-19T05:00:15;3.28;;;1.10;;
4428;SDS011;2227;47.810;8.810;2023-09-19T05:02:43;3.53;;;1.10;;
4428;SDS011;2227;47.810;8.810;2023-09-19T05:05:11;3.25;;;1.10;;
4428;SDS011;2227;47.810;8.810;2023-09-19T05:07:41;1.95;;;0.95;;
4428;SDS011;2227;47.810;8.810;2023-09-19T05:10:08;1.55;;;0.88;;
4428;SDS011;2227;47.810;8.810;2023-09-19T05:12:36;2.38;;;1.00;;
4428;SDS011;2227;47.810;8.810;2023-09-19T05:15:03;3.03;;;1.20;;
4428;SDS011;2227;47.810;8.810;2023-09-19T05:17:31;4.30;;;1.05;;
4428;SDS011;2227;47.810;8.810;2023-09-19T05:19:59;2.40;;;1.02;;
4428;SDS011;2227;47.810;8.810;2023-09-19T05:22:31;2.35;;;0.90;;
4428;SDS011;2227;47.810;8.810;2023-09-19T05:24:59;2.85;;;1.10;;
4428;SDS011;2227;47.810;8.810;2023-09-19T05:27:26;2.05;;;1.15;;
4428;SDS011;2227;47.810;8.810;2023-09-19T05:29:52;3.25;;;0.93;;
4428;SDS011;2227;47.810;8.810;2023-09-19T05:32:19;3.45;;;1.08;;
4428;SDS011;2227;47.810;8.810;2023-09-19T05:34:46;2.25;;;1.00;;
4428;SDS011;2227;47.810;8.810;2023-09-19T05:37:13;3.60;;;1.13;;
4428;SDS011;2227;47.810;8.810;2023-09-19T05:39:42;2.78;;;1.00;;
4428;SDS011;2227;47.810;8.810;2023-09-19T05:42:09;2.20;;;0.98;;
4428;SDS011;2227;47.810;8.810;2023-09-19T05:44:36;2.50;;;0.93;;
4428;SDS011;2227;47.810;8.810;2023-09-19T05:47:03;1.92;;;1.00;;
4428;SDS011;2227;47.810;8.810;2023-09-19T05:49:30;2.40;;;0.85;;
4428;SDS011;2227;47.810;8.810;2023-09-19T05:51:57;2.03;;;1.17;;
4428;SDS011;2227;47.810;8.810;2023-09-19T05:54:25;2.70;;;1.00;;
4428;SDS011;2227;47.810;8.810;2023-09-19T05:56:52;2.95;;;1.17;;
4428;SDS011;2227;47.810;8.810;2023-09-19T05:59:19;2.03;;;1.00;;
4428;SDS011;2227;47.810;8.810;2023-09-19T06:01:46;2.63;;;1.13;;
4428;SDS011;2227;47.810;8.810;2023-09-19T06:04:13;2.13;;;1.05;;
4428;SDS011;2227;47.810;8.810;2023-09-19T06:06:40;3.13;;;1.10;;
4428;SDS011;2227;47.810;8.810;2023-09-19T06:09:07;2.88;;;1.02;;
4428;SDS011;2227;47.810;8.810;2023-09-19T06:11:35;3.22;;;1.25;;
4428;SDS011;2227;47.810;8.810;2023-09-19T06:14:02;3.13;;;1.00;;
4428;SDS011;2227;47.810;8.810;2023-09-19T06:16:29;4.35;;;1.30;;
4428;SDS011;2227;47.810;8.810;2023-09-19T06:18:58;2.72;;;1.00;;
4428;SDS011;2227;47.810;8.810;2023-09-19T06:21:27;2.60;;;1.17;;
4428;SDS011;2227;47.810;8.810;2023-09-19T06:23:54;4.63;;;1.70;;
4428;SDS011;2227;47.810;8.810;2023-09-19T06:26:21;2.95;;;1.05;;
4428;SDS011;2227;47.810;8.810;2023-09-19T06:28:48;3.55;;;1.20;;
4428;SDS011;2227;47.810;8.810;2023-09-19T06:31:15;2.17;;;0.95;;
4428;SDS011;2227;47.810;8.810;2023-09-19T06:33:41;4.07;;;1.10;;
4428;SDS011;2227;47.810;8.810;2023-09-19T06:36:09;3.35;;;1.02;;
4428;SDS011;2227;47.810;8.810;2023-09-19T06:38:36;2.67;;;1.15;;
4428;SDS011;2227;47.810;8.810;2023-09-19T06:41:03;2.25;;;0.90;;
4428;SDS011;2227;47.810;8.810;2023-09-19T06:43:31;1.95;;;0.90;;
4428;SDS011;2227;47.810;8.810;2023-09-19T06:46:03;3.80;;;1.10;;
4428;SDS011;2227;47.810;8.810;2023-09-19T06:48:30;1.77;;;0.80;;
4428;SDS011;2227;47.810;8.810;2023-09-19T06:50:59;3.13;;;0.80;;
4428;SDS011;2227;47.810;8.810;2023-09-19T06:53:32;3.03;;;0.70;;
4428;SDS011;2227;47.810;8.810;2023-09-19T06:55:59;2.13;;;0.75;;
4428;SDS011;2227;47.810;8.810;2023-09-19T06:58:25;3.08;;;0.90;;
4428;SDS011;2227;47.810;8.810;2023-09-19T07:00:55;2.85;;;0.80;;
4428;SDS011;2227;47.810;8.810;2023-09-19T07:03:23;0.98;;;0.63;;
4428;SDS011;2227;47.810;8.810;2023-09-19T07:05:52;2.03;;;0.80;;
4428;SDS011;2227;47.810;8.810;2023-09-19T07:08:22;2.15;;;0.80;;
4428;SDS011;2227;47.810;8.810;2023-09-19T07:10:49;2.78;;;0.95;;
4428;SDS011;2227;47.810;8.810;2023-09-19T07:13:16;1.48;;;0.77;;
4428;SDS011;2227;47.810;8.810;2023-09-19T07:15:44;1.73;;;0.70;;
4428;SDS011;2227;47.810;8.810;2023-09-19T07:18:16;1.93;;;0.77;;
4428;SDS011;2227;47.810;8.810;2023-09-19T07:20:44;1.73;;;0.70;;
4428;SDS011;2227;47.810;8.810;2023-09-19T07:23:16;1.80;;;0.80;;
4428;SDS011;2227;47.810;8.810;2023-09-19T07:25:47;1.88;;;0.63;;
4428;SDS011;2227;47.810;8.810;2023-09-19T07:28:15;1.42;;;0.70;;
4428;SDS011;2227;47.810;8.810;2023-09-19T07:30:42;2.67;;;0.70;;
4428;SDS011;2227;47.810;8.810;2023-09-19T07:33:08;3.50;;;1.00;;
4428;SDS011;2227;47.810;8.810;2023-09-19T07:35:38;2.70;;;0.85;;
4428;SDS011;2227;47.810;8.810;2023-09-19T07:38:08;3.45;;;1.60;;
4428;SDS011;2227;47.810;8.810;2023-09-19T07:40:38;2.05;;;0.70;;
4428;SDS011;2227;47.810;8.810;2023-09-19T07:43:05;4.13;;;1.70;;
4428;SDS011;2227;47.810;8.810;2023-09-19T07:45:33;3.47;;;1.13;;
4428;SDS011;2227;47.810;8.810;2023-09-19T07:48:00;2.92;;;0.90;;
4428;SDS011;2227;47.810;8.810;2023-09-19T07:50:30;3.95;;;0.90;;
4428;SDS011;2227;47.810;8.810;2023-09-19T07:52:59;1.38;;;0.70;;
4428;SDS011;2227;47.810;8.810;2023-09-19T07:55:26;2.58;;;0.70;;
4428;SDS011;2227;47.810;8.810;2023-09-19T07:57:53;1.95;;;0.63;;
4428;SDS011;2227;47.810;8.810;2023-09-19T08:00:19;1.30;;;0.60;;
4428;SDS011;2227;47.810;8.810;2023-09-19T08:02:46;2.47;;;0.47;;
4428;SDS011;2227;47.810;8.810;2023-09-19T08:05:23;2.35;;;1.00;;
4428;SDS011;2227;47.810;8.810;2023-09-19T08:07:51;2.15;;;0.75;;
4428;SDS011;2227;47.810;8.810;2023-09-19T08:10:18;2.58;;;1.00;;
4428;SDS011;2227;47.810;8.810;2023-09-19T08:12:47;1.58;;;0.70;;
4428;SDS011;2227;47.810;8.810;2023-09-19T08:15:15;2.30;;;0.70;;
4428;SDS011;2227;47.810;8.810;2023-09-19T08:17:43;1.92;;;0.70;;
4428;SDS011;2227;47.810;8.810;2023-09-19T08:20:10;1.70;;;0.57;;
4428;SDS011;2227;47.810;8.810;2023-09-19T08:22:52;3.22;;;0.88;;
4428;SDS011;2227;47.810;8.810;2023-09-19T08:25:23;2.72;;;0.63;;
4428;SDS011;2227;47.810;8.810;2023-09-19T08:27:51;2.97;;;0.50;;
4428;SDS011;2227;47.810;8.810;2023-09-19T08:30:19;1.85;;;0.60;;
4428;SDS011;2227;47.810;8.810;2023-09-19T08:32:51;1.45;;;0.55;;
4428;SDS011;2227;47.810;8.810;2023-09-19T08:35:18;1.42;;;0.65;;
4428;SDS011;2227;47.810;8.810;2023-09-19T08:37:46;1.40;;;0.57;;
4428;SDS011;2227;47.810;8.810;2023-09-19T08:40:14;2.42;;;0.70;;
4428;SDS011;2227;47.810;8.810;2023-09-19T08:42:48;2.78;;;0.70;;
4428;SDS011;2227;47.810;8.810;2023-09-19T08:45:20;2.45;;;0.70;;
4428;SDS011;2227;47.810;8.810;2023-09-19T08:50:43;2.45;;;0.73;;
4428;SDS011;2227;47.810;8.810;2023-09-19T08:53:18;1.48;;;0.68;;
4428;SDS011;2227;47.810;8.810;2023-09-19T08:55:54;2.47;;;0.90;;
4428;SDS011;2227;47.810;8.810;2023-09-19T08:58:28;2.03;;;0.60;;
4428;SDS011;2227;47.810;8.810;2023-09-19T09:01:01;1.52;;;0.60;;
4428;SDS011;2227;47.810;8.810;2023-09-19T09:03:32;1.83;;;0.80;;
4428;SDS011;2227;47.810;8.810;2023-09-19T09:06:01;2.55;;;0.82;;
4428;SDS011;2227;47.810;8.810;2023-09-19T09:08:29;2.65;;;0.90;;
4428;SDS011;2227;47.810;8.810;2023-09-19T09:10:58;2.03;;;0.80;;
4428;SDS011;2227;47.810;8.810;2023-09-19T09:13:25;2.33;;;0.73;;
4428;SDS011;2227;47.810;8.810;2023-09-19T09:15:52;2.72;;;0.65;;
4428;SDS011;2227;47.810;8.810;2023-09-19T09:18:20;1.92;;;0.65;;
4428;SDS011;2227;47.810;8.810;2023-09-19T09:20:48;2.70;;;0.80;;
4428;SDS011;2227;47.810;8.810;2023-09-19T09:23:15;1.75;;;0.80;;
4428;SDS011;2227;47.810;8.810;2023-09-19T09:25:49;2.22;;;0.55;;
4428;SDS011;2227;47.810;8.810;2023-09-19T09:28:33;3.00;;;0.68;;
4428;SDS011;2227;47.810;8.810;2023-09-19T09:31:02;2.42;;;0.60;;
4428;SDS011;2227;47.810;8.810;2023-09-19T09:33:34;1.95;;;0.70;;
4428;SDS011;2227;47.810;8.810;2023-09-19T09:36:02;1.40;;;0.60;;
4428;SDS011;2227;47.810;8.810;2023-09-19T09:38:47;2.95;;;0.90;;
4428;SDS011;2227;47.810;8.810;2023-09-19T09:41:21;2.40;;;1.00;;
4428;SDS011;2227;47.810;8.810;2023-09-19T09:44:13;1.67;;;0.57;;
4428;SDS011;2227;47.810;8.810;2023-09-19T09:46:47;1.13;;;0.50;;
4428;SDS011;2227;47.810;8.810;2023-09-19T09:49:24;1.85;;;0.70;;
4428;SDS011;2227;47.810;8.810;2023-09-19T09:52:04;2.20;;;0.63;;
4428;SDS011;2227;47.810;8.810;2023-09-19T09:54:37;2.28;;;0.80;;
4428;SDS011;2227;47.810;8.810;2023-09-19T09:57:09;1.83;;;0.60;;
4428;SDS011;2227;47.810;8.810;2023-09-19T09:59:47;1.88;;;0.52;;
4428;SDS011;2227;47.810;8.810;2023-09-19T10:02:26;2.70;;;0.90;;
4428;SDS011;2227;47.810;8.810;2023-09-19T10:05:24;1.58;;;0.65;;
4428;SDS011;2227;47.810;8.810;2023-09-19T10:08:10;4.32;;;0.82;;
4428;SDS011;2227;47.810;8.810;2023-09-19T10:10:39;1.90;;;0.70;;
4428;SDS011;2227;47.810;8.810;2023-09-19T10:13:11;2.47;;;0.70;;
4428;SDS011;2227;47.810;8.810;2023-09-19T10:15:39;1.60;;;0.70;;
4428;SDS011;2227;47.810;8.810;2023-09-19T10:18:15;2.85;;;0.90;;
4428;SDS011;2227;47.810;8.810;2023-09-19T10:20:45;1.60;;;0.60;;
4428;SDS011;2227;47.810;8.810;2023-09-19T10:23:12;1.58;;;0.63;;
4428;SDS011;2227;47.810;8.810;2023-09-19T10:25:40;1.92;;;0.60;;
4428;SDS011;2227;47.810;8.810;2023-09-19T10:28:09;2.22;;;0.70;;
4428;SDS011;2227;47.810;8.810;2023-09-19T10:30:42;1.88;;;0.68;;
4428;SDS011;2227;47.810;8.810;2023-09-19T10:33:14;2.33;;;0.63;;
4428;SDS011;2227;47.810;8.810;2023-09-19T10:35:46;1.80;;;0.80;;
4428;SDS011;2227;47.810;8.810;2023-09-19T10:38:24;1.85;;;0.65;;
4428;SDS011;2227;47.810;8.810;2023-09-19T10:40:55;1.48;;;0.55;;
4428;SDS011;2227;47.810;8.810;2023-09-19T10:43:31;1.35;;;0.57;;
4428;SDS011;2227;47.810;8.810;2023-09-19T10:46:03;1.50;;;0.70;;
4428;SDS011;2227;47.810;8.810;2023-09-19T10:48:41;2.72;;;0.85;;
4428;SDS011;2227;47.810;8.810;2023-09-19T10:51:11;2.35;;;0.60;;
4428;SDS011;2227;47.810;8.810;2023-09-19T10:53:43;1.55;;;0.70;;
4428;SDS011;2227;47.810;8.810;2023-09-19T10:56:27;1.42;;;0.60;;
4428;SDS011;2227;47.810;8.810;2023-09-19T10:59:10;1.48;;;0.60;;
4428;SDS011;2227;47.810;8.810;2023-09-19T11:01:43;1.50;;;0.60;;
4428;SDS011;2227;47.810;8.810;2023-09-19T11:04:25;1.95;;;0.57;;
4428;SDS011;2227;47.810;8.810;2023-09-19T11:07:04;1.83;;;0.82;;
4428;SDS011;2227;47.810;8.810;2023-09-19T11:09:54;1.88;;;0.70;;
4428;SDS011;2227;47.810;8.810;2023-09-19T11:26:49;1.48;;;0.63;;
4428;SDS011;2227;47.810;8.810;2023-09-19T11:31:52;1.08;;;0.57;;
4428;SDS011;2227;47.810;8.810;2023-09-19T11:34:42;1.83;;;0.50;;
4428;SDS011;2227;47.810;8.810;2023-09-19T11:42:44;1.58;;;0.70;;
4428;SDS011;2227;47.810;8.810;2023-09-19T11:48:18;1.55;;;0.60;;
4428;SDS011;2227;47.810;8.810;2023-09-19T11:50:46;1.50;;;0.57;;
4428;SDS011;2227;47.810;8.810;2023-09-19T11:53:14;1.45;;;0.60;;
4428;SDS011;2227;47.810;8.810;2023-09-19T11:55:42;1.75;;;0.65;;
4428;SDS011;2227;47.810;8.810;2023-09-19T11:58:10;0.88;;;0.50;;
4428;SDS011;2227;47.810;8.810;2023-09-19T12:00:40;1.50;;;0.63;;
4428;SDS011;2227;47.810;8.810;2023-09-19T12:03:11;1.73;;;0.57;;
4428;SDS011;2227;47.810;8.810;2023-09-19T12:05:40;2.03;;;0.77;;
4428;SDS011;2227;47.810;8.810;2023-09-19T12:08:07;1.75;;;0.60;;
4428;SDS011;2227;47.810;8.810;2023-09-19T12:10:47;0.77;;;0.50;;
4428;SDS011;2227;47.810;8.810;2023-09-19T12:13:16;0.95;;;0.45;;
4428;SDS011;2227;47.810;8.810;2023-09-19T12:15:44;2.85;;;0.73;;
4428;SDS011;2227;47.810;8.810;2023-09-19T12:18:26;1.20;;;0.50;;
4428;SDS011;2227;47.810;8.810;2023-09-19T12:20:54;1.60;;;0.70;;
4428;SDS011;2227;47.810;8.810;2023-09-19T12:23:22;2.05;;;0.80;;
4428;SDS011;2227;47.810;8.810;2023-09-19T12:25:49;2.35;;;0.63;;
4428;SDS011;2227;47.810;8.810;2023-09-19T12:28:19;1.50;;;0.60;;
4428;SDS011;2227;47.810;8.810;2023-09-19T12:30:49;3.00;;;0.93;;
4428;SDS011;2227;47.810;8.810;2023-09-19T12:33:19;1.42;;;0.50;;
4428;SDS011;2227;47.810;8.810;2023-09-19T12:35:47;2.03;;;0.70;;
4428;SDS011;2227;47.810;8.810;2023-09-19T12:38:26;2.17;;;0.73;;
4428;SDS011;2227;47.810;8.810;2023-09-19T12:41:01;1.67;;;0.70;;
4428;SDS011;2227;47.810;8.810;2023-09-19T12:43:29;3.42;;;0.70;;
4428;SDS011;2227;47.810;8.810;2023-09-19T12:45:59;1.40;;;0.70;;
4428;SDS011;2227;47.810;8.810;2023-09-19T12:48:26;1.73;;;0.68;;
4428;SDS011;2227;47.810;8.810;2023-09-19T12:51:07;1.27;;;0.70;;
4428;SDS011;2227;47.810;8.810;2023-09-19T12:56:09;1.77;;;0.77;;
4428;SDS011;2227;47.810;8.810;2023-09-19T12:58:56;2.65;;;0.80;;
4428;SDS011;2227;47.810;8.810;2023-09-19T13:01:29;2.67;;;0.70;;
4428;SDS011;2227;47.810;8.810;2023-09-19T13:06:47;1.83;;;0.70;;
4428;SDS011;2227;47.810;8.810;2023-09-19T13:09:16;1.75;;;0.60;;
4428;SDS011;2227;47.810;8.810;2023-09-19T13:11:43;2.03;;;0.60;;
4428;SDS011;2227;47.810;8.810;2023-09-19T13:14:25;3.17;;;0.70;;
4428;SDS011;2227;47.810;8.810;2023-09-19T13:17:04;1.90;;;0.70;;
4428;SDS011;2227;47.810;8.810;2023-09-19T13:19:46;1.00;;;0.60;;
4428;SDS011;2227;47.810;8.810;2023-09-19T13:22:39;2.95;;;0.80;;
4428;SDS011;2227;47.810;8.810;2023-09-19T13:25:15;1.77;;;0.60;;
4428;SDS011;2227;47.810;8.810;2023-09-19T13:27:52;1.60;;;0.60;;
4428;SDS011;2227;47.810;8.810;2023-09-19T13:30:26;3.00;;;0.75;;
4428;SDS011;2227;47.810;8.810;2023-09-19T13:33:05;3.50;;;1.63;;
4428;SDS011;2227;47.810;8.810;2023-09-19T13:35:33;1.75;;;0.60;;
4428;SDS011;2227;47.810;8.810;2023-09-19T13:38:00;3.60;;;0.70;;
4428;SDS011;2227;47.810;8.810;2023-09-19T13:40:27;1.58;;;0.63;;
4428;SDS011;2227;47.810;8.810;2023-09-19T13:42:57;2.17;;;0.93;;
4428;SDS011;2227;47.810;8.810;2023-09-19T13:45:24;2.78;;;0.95;;
4428;SDS011;2227;47.810;8.810;2023-09-19T13:47:53;1.70;;;0.88;;
4428;SDS011;2227;47.810;8.810;2023-09-19T13:50:20;2.25;;;0.88;;
4428;SDS011;2227;47.810;8.810;2023-09-19T13:52:51;1.95;;;0.60;;
4428;SDS011;2227;47.810;8.810;2023-09-19T13:55:17;2.22;;;0.55;;
4428;SDS011;2227;47.810;8.810;2023-09-19T13:57:49;1.83;;;0.90;;
4428;SDS011;2227;47.810;8.810;2023-09-19T14:00:18;1.20;;;0.50;;
4428;SDS011;2227;47.810;8.810;2023-09-19T14:02:48;1.67;;;0.60;;
4428;SDS011;2227;47.810;8.810;2023-09-19T14:05:15;1.52;;;0.60;;
4428;SDS011;2227;47.810;8.810;2023-09-19T14:07:43;1.77;;;0.73;;
4428;SDS011;2227;47.810;8.810;2023-09-19T14:10:10;1.80;;;0.82;;
4428;SDS011;2227;47.810;8.810;2023-09-19T14:12:37;1.98;;;0.55;;
4428;SDS011;2227;47.810;8.810;2023-09-19T14:15:07;2.00;;;0.80;;
4428;SDS011;2227;47.810;8.810;2023-09-19T14:17:34;2.90;;;0.82;;
4428;SDS011;2227;47.810;8.810;2023-09-19T14:20:01;3.08;;;0.80;;
4428;SDS011;2227;47.810;8.810;2023-09-19T14:22:30;2.05;;;0.75;;
4428;SDS011;2227;47.810;8.810;2023-09-19T14:24:58;1.55;;;0.60;;
4428;SDS011;2227;47.810;8.810;2023-09-19T14:27:26;1.90;;;0.70;;
4428;SDS011;2227;47.810;8.810;2023-09-19T14:29:52;4.80;;;0.82;;
4428;SDS011;2227;47.810;8.810;2023-09-19T14:32:19;1.67;;;0.70;;
4428;SDS011;2227;47.810;8.810;2023-09-19T14:34:46;1.92;;;0.70;;
4428;SDS011;2227;47.810;8.810;2023-09-19T14:37:13;1.25;;;0.68;;
4428;SDS011;2227;47.810;8.810;2023-09-19T14:39:40;2.83;;;0.98;;
4428;SDS011;2227;47.810;8.810;2023-09-19T14:42:11;1.80;;;0.80;;
4428;SDS011;2227;47.810;8.810;2023-09-19T14:44:38;1.30;;;0.73;;
4428;SDS011;2227;47.810;8.810;2023-09-19T14:47:06;1.50;;;0.85;;
4428;SDS011;2227;47.810;8.810;2023-09-19T14:49:34;2.63;;;0.65;;
4428;SDS011;2227;47.810;8.810;2023-09-19T14:52:01;1.40;;;0.90;;
4428;SDS011;2227;47.810;8.810;2023-09-19T14:54:30;2.28;;;0.75;;
4428;SDS011;2227;47.810;8.810;2023-09-19T14:56:57;2.30;;;1.00;;
4428;SDS011;2227;47.810;8.810;2023-09-19T14:59:30;2.05;;;0.90;;
4428;SDS011;2227;47.810;8.810;2023-09-19T15:01:58;1.90;;;0.68;;
4428;SDS011;2227;47.810;8.810;2023-09-19T15:04:25;2.10;;;0.77;;
4428;SDS011;2227;47.810;8.810;2023-09-19T15:06:54;1.67;;;0.80;;
4428;SDS011;2227;47.810;8.810;2023-09-19T15:09:21;1.58;;;0.70;;
4428;SDS011;2227;47.810;8.810;2023-09-19T15:11:52;2.40;;;0.68;;
4428;SDS011;2227;47.810;8.810;2023-09-19T15:14:20;2.65;;;0.70;;
4428;SDS011;2227;47.810;8.810;2023-09-19T15:16:48;1.85;;;0.80;;
4428;SDS011;2227;47.810;8.810;2023-09-19T15:19:15;2.55;;;0.90;;
4428;SDS011;2227;47.810;8.810;2023-09-19T15:21:43;3.92;;;0.90;;
4428;SDS011;2227;47.810;8.810;2023-09-19T15:24:10;2.70;;;0.90;;
4428;SDS011;2227;47.810;8.810;2023-09-19T15:26:37;2.60;;;1.00;;
4428;SDS011;2227;47.810;8.810;2023-09-19T15:29:09;2.85;;;0.88;;
4428;SDS011;2227;47.810;8.810;2023-09-19T15:31:36;2.28;;;0.80;;
4428;SDS011;2227;47.810;8.810;2023-09-19T15:34:03;2.40;;;0.70;;
4428;SDS011;2227;47.810;8.810;2023-09-19T15:36:32;1.65;;;0.80;;
4428;SDS011;2227;47.810;8.810;2023-09-19T15:39:05;2.95;;;0.70;;
4428;SDS011;2227;47.810;8.810;2023-09-19T15:41:44;1.45;;;0.63;;
4428;SDS011;2227;47.810;8.810;2023-09-19T15:44:17;2.38;;;1.13;;
4428;SDS011;2227;47.810;8.810;2023-09-19T15:46:47;2.58;;;0.80;;
4428;SDS011;2227;47.810;8.810;2023-09-19T15:49:14;1.58;;;0.77;;
4428;SDS011;2227;47.810;8.810;2023-09-19T15:51:41;2.30;;;0.68;;
4428;SDS011;2227;47.810;8.810;2023-09-19T15:54:12;2.45;;;0.80;;
4428;SDS011;2227;47.810;8.810;2023-09-19T15:56:40;2.05;;;0.80;;
4428;SDS011;2227;47.810;8.810;2023-09-19T15:59:09;1.60;;;0.70;;
4428;SDS011;2227;47.810;8.810;2023-09-19T16:01:39;1.63;;;0.63;;
4428;SDS011;2227;47.810;8.810;2023-09-19T16:04:07;1.45;;;0.80;;
4428;SDS011;2227;47.810;8.810;2023-09-19T16:06:37;2.00;;;0.73;;
4428;SDS011;2227;47.810;8.810;2023-09-19T16:09:05;2.72;;;0.77;;
4428;SDS011;2227;47.810;8.810;2023-09-19T16:11:33;1.42;;;0.55;;
4428;SDS011;2227;47.810;8.810;2023-09-19T16:14:02;1.88;;;0.90;;
4428;SDS011;2227;47.810;8.810;2023-09-19T16:16:29;3.45;;;0.90;;
4428;SDS011;2227;47.810;8.810;2023-09-19T16:19:01;2.38;;;0.70;;
4428;SDS011;2227;47.810;8.810;2023-09-19T16:21:31;2.13;;;0.80;;
4428;SDS011;2227;47.810;8.810;2023-09-19T16:24:01;2.67;;;0.73;;
4428;SDS011;2227;47.810;8.810;2023-09-19T16:26:28;1.33;;;0.70;;
4428;SDS011;2227;47.810;8.810;2023-09-19T16:28:56;2.35;;;0.82;;
4428;SDS011;2227;47.810;8.810;2023-09-19T16:31:27;2.70;;;0.88;;
4428;SDS011;2227;47.810;8.810;2023-09-19T16:33:55;2.58;;;0.80;;
4428;SDS011;2227;47.810;8.810;2023-09-19T16:36:23;3.95;;;1.00;;
4428;SDS011;2227;47.810;8.810;2023-09-19T16:38:50;2.83;;;0.82;;
4428;SDS011;2227;47.810;8.810;2023-09-19T16:41:18;2.75;;;0.88;;
4428;SDS011;2227;47.810;8.810;2023-09-19T16:43:46;1.30;;;0.60;;
4428;SDS011;2227;47.810;8.810;2023-09-19T16:46:13;2.75;;;0.70;;
4428;SDS011;2227;47.810;8.810;2023-09-19T16:48:43;2.08;;;0.73;;
4428;SDS011;2227;47.810;8.810;2023-09-19T16:51:28;2.30;;;0.80;;
4428;SDS011;2227;47.810;8.810;2023-09-19T16:53:55;2.85;;;1.38;;
4428;SDS011;2227;47.810;8.810;2023-09-19T16:56:22;2.67;;;0.68;;
4428;SDS011;2227;47.810;8.810;2023-09-19T16:58:49;1.88;;;0.55;;
4428;SDS011;2227;47.810;8.810;2023-09-19T17:01:18;2.33;;;0.90;;
4428;SDS011;2227;47.810;8.810;2023-09-19T17:03:47;1.80;;;0.95;;
4428;SDS011;2227;47.810;8.810;2023-09-19T17:06:16;2.05;;;0.93;;
4428;SDS011;2227;47.810;8.810;2023-09-19T17:08:44;3.75;;;1.10;;
4428;SDS011;2227;47.810;8.810;2023-09-19T17:11:13;1.73;;;0.80;;
4428;SDS011;2227;47.810;8.810;2023-09-19T17:13:43;2.05;;;0.70;;
4428;SDS011;2227;47.810;8.810;2023-09-19T17:16:13;2.05;;;0.80;;
4428;SDS011;2227;47.810;8.810;2023-09-19T17:18:50;2.25;;;0.68;;
4428;SDS011;2227;47.810;8.810;2023-09-19T17:21:18;1.63;;;0.88;;
4428;SDS011;2227;47.810;8.810;2023-09-19T17:23:46;2.58;;;0.73;;
4428;SDS011;2227;47.810;8.810;2023-09-19T17:26:13;4.40;;;0.93;;
4428;SDS011;2227;47.810;8.810;2023-09-19T17:28:41;2.08;;;0.82;;
4428;SDS011;2227;47.810;8.810;2023-09-19T17:31:09;2.60;;;0.93;;
4428;SDS011;2227;47.810;8.810;2023-09-19T17:33:41;3.67;;;1.00;;
4428;SDS011;2227;47.810;8.810;2023-09-19T17:38:40;3.35;;;0.98;;
4428;SDS011;2227;47.810;8.810;2023-09-19T17:41:09;2.38;;;0.90;;
4428;SDS011;2227;47.810;8.810;2023-09-19T17:43:41;2.85;;;1.00;;
4428;SDS011;2227;47.810;8.810;2023-09-19T17:46:16;2.60;;;1.08;;
4428;SDS011;2227;47.810;8.810;2023-09-19T17:48:44;2.28;;;1.02;;
4428;SDS011;2227;47.810;8.810;2023-09-19T17:51:13;2.13;;;1.00;;
4428;SDS011;2227;47.810;8.810;2023-09-19T17:53:43;2.45;;;0.80;;
4428;SDS011;2227;47.810;8.810;2023-09-19T17:56:11;2.55;;;1.20;;
4428;SDS011;2227;47.810;8.810;2023-09-19T17:58:41;2.20;;;0.80;;
4428;SDS011;2227;47.810;8.810;2023-09-19T18:01:13;2.33;;;1.08;;
4428;SDS011;2227;47.810;8.810;2023-09-19T18:03:46;1.63;;;1.00;;
4428;SDS011;2227;47.810;8.810;2023-09-19T18:06:14;2.67;;;1.27;;
4428;SDS011;2227;47.810;8.810;2023-09-19T18:08:42;2.20;;;1.23;;
4428;SDS011;2227;47.810;8.810;2023-09-19T18:11:14;3.05;;;1.10;;
4428;SDS011;2227;47.810;8.810;2023-09-19T18:13:45;4.55;;;1.13;;
4428;SDS011;2227;47.810;8.810;2023-09-19T18:16:17;2.55;;;1.17;;
4428;SDS011;2227;47.810;8.810;2023-09-19T18:18:46;3.17;;;1.17;;
4428;SDS011;2227;47.810;8.810;2023-09-19T18:21:18;2.80;;;1.07;;
4428;SDS011;2227;47.810;8.810;2023-09-19T18:23:56;3.35;;;1.02;;
4428;SDS011;2227;47.810;8.810;2023-09-19T18:26:25;2.28;;;1.17;;
4428;SDS011;2227;47.810;8.810;2023-09-19T18:28:54;2.78;;;1.20;;
4428;SDS011;2227;47.810;8.810;2023-09-19T18:31:21;2.42;;;1.20;;
4428;SDS011;2227;47.810;8.810;2023-09-19T18:33:48;3.50;;;1.00;;
4428;SDS011;2227;47.810;8.810;2023-09-19T18:36:16;3.83;;;1.13;;
4428;SDS011;2227;47.810;8.810;2023-09-19T18:38:43;3.08;;;1.05;;
4428;SDS011;2227;47.810;8.810;2023-09-19T18:41:12;3.20;;;1.00;;
4428;SDS011;2227;47.810;8.810;2023-09-19T18:43:41;2.85;;;1.15;;
4428;SDS011;2227;47.810;8.810;2023-09-19T18:46:08;3.25;;;1.20;;
4428;SDS011;2227;47.810;8.810;2023-09-19T18:48:38;2.78;;;1.33;;
4428;SDS011;2227;47.810;8.810;2023-09-19T18:51:13;4.03;;;1.15;;
4428;SDS011;2227;47.810;8.810;2023-09-19T18:53:44;5.10;;;1.20;;
4428;SDS011;2227;47.810;8.810;2023-09-19T18:56:26;2.47;;;1.17;;
4428;SDS011;2227;47.810;8.810;2023-09-19T18:58:53;7.63;;;3.33;;
4428;SDS011;2227;47.810;8.810;2023-09-19T19:01:21;7.00;;;2.50;;
4428;SDS011;2227;47.810;8.810;2023-09-19T19:03:51;3.10;;;1.40;;
4428;SDS011;2227;47.810;8.810;2023-09-19T19:06:18;2.65;;;1.02;;
4428;SDS011;2227;47.810;8.810;2023-09-19T19:08:47;2.05;;;1.05;;
4428;SDS011;2227;47.810;8.810;2023-09-19T19:11:15;2.80;;;1.40;;
4428;SDS011;2227;47.810;8.810;2023-09-19T19:13:47;3.05;;;1.20;;
4428;SDS011;2227;47.810;8.810;2023-09-19T19:16:17;2.30;;;1.00;;
4428;SDS011;2227;47.810;8.810;2023-09-19T19:18:46;2.75;;;1.10;;
4428;SDS011;2227;47.810;8.810;2023-09-19T19:21:14;3.42;;;1.10;;
4428;SDS011;2227;47.810;8.810;2023-09-19T19:23:42;2.97;;;1.20;;
4428;SDS011;2227;47.810;8.810;2023-09-19T19:26:09;3.60;;;1.35;;
4428;SDS011;2227;47.810;8.810;2023-09-19T19:28:38;2.55;;;1.30;;
4428;SDS011;2227;47.810;8.810;2023-09-19T19:31:07;3.97;;;1.70;;
4428;SDS011;2227;47.810;8.810;2023-09-19T19:33:36;2.88;;;1.38;;
4428;SDS011;2227;47.810;8.810;2023-09-19T19:36:04;4.32;;;1.48;;
4428;SDS011;2227;47.810;8.810;2023-09-19T19:38:32;2.67;;;1.15;;
4428;SDS011;2227;47.810;8.810;2023-09-19T19:41:00;2.40;;;1.05;;
4428;SDS011;2227;47.810;8.810;2023-09-19T19:43:27;2.67;;;1.25;;
4428;SDS011;2227;47.810;8.810;2023-09-19T19:45:55;1.77;;;0.90;;
4428;SDS011;2227;47.810;8.810;2023-09-19T19:48:23;3.08;;;1.08;;
4428;SDS011;2227;47.810;8.810;2023-09-19T19:50:50;2.45;;;1.10;;
4428;SDS011;2227;47.810;8.810;2023-09-19T19:53:20;2.47;;;1.23;;
4428;SDS011;2227;47.810;8.810;2023-09-19T19:55:49;2.92;;;1.30;;